sensor_id;sensor_type;location;lat;lon;timestamp;temperature;humidity
40077;DHT22;25777;47.824;18.982;2023-09-19T00:00:20;20.60;99.90
40077;DHT22;25777;47.824;18.982;2023-09-19T00:02:57;20.60;99.90
40077;DHT22;25777;47.824;18.982;2023-09-19T00:05:28;20.60;99.90
40077;DHT22;25777;47.824;18.982;2023-09-19T00:07:57;20.60;99.90
40077;DHT22;25777;47.824;18.982;2023-09-19T00:10:29;20.60;99.90
40077;DHT22;25777;47.824;18.982;2023-09-19T00:12:57;20.50;99.90
40077;DHT22;25777;47.824;18.982;2023-09-19T00:15:26;20.40;99.90
40077;DHT22;25777;47.824;18.982;2023-09-19T00:17:55;20.40;99.90
40077;DHT22;25777;47.824;18.982;2023-09-19T00:20:21;20.40;99.90
40077;DHT22;25777;47.824;18.982;2023-09-19T00:22:50;20.30;99.90
40077;DHT22;25777;47.824;18.982;2023-09-19T00:25:17;20.40;99.90
40077;DHT22;25777;47.824;18.982;2023-09-19T00:27:43;20.50;99.90
40077;DHT22;25777;47.824;18.982;2023-09-19T00:30:11;20.40;99.90
40077;DHT22;25777;47.824;18.982;2023-09-19T00:32:50;20.50;99.90
40077;DHT22;25777;47.824;18.982;2023-09-19T00:35:21;20.40;99.90
40077;DHT22;25777;47.824;18.982;2023-09-19T00:37:53;20.40;99.90
40077;DHT22;25777;47.824;18.982;2023-09-19T00:40:19;20.40;99.90
40077;DHT22;25777;47.824;18.982;2023-09-19T00:42:48;20.20;99.90
40077;DHT22;25777;47.824;18.982;2023-09-19T00:45:16;20.20;99.90
40077;DHT22;25777;47.824;18.982;2023-09-19T00:47:48;20.20;99.90
40077;DHT22;25777;47.824;18.982;2023-09-19T00:50:24;20.20;99.90
40077;DHT22;25777;47.824;18.982;2023-09-19T00:52:54;20.10;99.90
40077;DHT22;25777;47.824;18.982;2023-09-19T00:55:25;20.00;99.90
40077;DHT22;25777;47.824;18.982;2023-09-19T00:57:51;20.10;99.90
40077;DHT22;25777;47.824;18.982;2023-09-19T01:00:18;19.90;99.90
40077;DHT22;25777;47.824;18.982;2023-09-19T01:02:48;19.90;99.90
40077;DHT22;25777;47.824;18.982;2023-09-19T01:05:14;19.90;99.90
40077;DHT22;25777;47.824;18.982;2023-09-19T01:07:41;19.90;99.90
40077;DHT22;25777;47.824;18.982;2023-09-19T01:10:13;19.90;99.90
40077;DHT22;25777;47.824;18.982;2023-09-19T01:18:33;19.80;99.90
40077;DHT22;25777;47.824;18.982;2023-09-19T01:21:15;19.90;99.90
40077;DHT22;25777;47.824;18.982;2023-09-19T01:27:18;19.90;99.90
40077;DHT22;25777;47.824;18.982;2023-09-19T01:29:44;19.90;99.90
40077;DHT22;25777;47.824;18.982;2023-09-19T01:32:14;19.90;99.90
40077;DHT22;25777;47.824;18.982;2023-09-19T01:37:15;19.80;99.90
40077;DHT22;25777;47.824;18.982;2023-09-19T01:39:47;19.90;99.90
40077;DHT22;25777;47.824;18.982;2023-09-19T01:42:37;19.90;99.90
40077;DHT22;25777;47.824;18.982;2023-09-19T01:45:13;19.90;99.90
40077;DHT22;25777;47.824;18.982;2023-09-19T01:47:54;19.80;99.90
40077;DHT22;25777;47.824;18.982;2023-09-19T01:50:42;19.80;99.90
40077;DHT22;25777;47.824;18.982;2023-09-19T01:53:26;19.80;99.90
40077;DHT22;25777;47.824;18.982;2023-09-19T01:55:57;19.70;99.90
40077;DHT22;25777;47.824;18.982;2023-09-19T02:00:52;19.70;99.90
40077;DHT22;25777;47.824;18.982;2023-09-19T02:03:20;19.80;99.90
40077;DHT22;25777;47.824;18.982;2023-09-19T02:05:51;19.70;99.90
40077;DHT22;25777;47.824;18.982;2023-09-19T02:08:21;19.70;99.90
40077;DHT22;25777;47.824;18.982;2023-09-19T02:10:52;19.70;99.90
40077;DHT22;25777;47.824;18.982;2023-09-19T02:13:22;19.80;99.90
40077;DHT22;25777;47.824;18.982;2023-09-19T02:15:51;19.80;99.90
40077;DHT22;25777;47.824;18.982;2023-09-19T02:18:17;19.80;99.90
40077;DHT22;25777;47.824;18.982;2023-09-19T02:20:47;19.80;99.90
40077;DHT22;25777;47.824;18.982;2023-09-19T02:23:14;19.80;99.90
40077;DHT22;25777;47.824;18.982;2023-09-19T02:25:42;19.80;99.90
40077;DHT22;25777;47.824;18.982;2023-09-19T02:28:10;19.80;99.90
40077;DHT22;25777;47.824;18.982;2023-09-19T02:30:38;19.80;99.90
40077;DHT22;25777;47.824;18.982;2023-09-19T02:33:04;19.80;99.90
40077;DHT22;25777;47.824;18.982;2023-09-19T02:35:31;19.70;99.90
40077;DHT22;25777;47.824;18.982;2023-09-19T02:38:03;19.70;99.90
40077;DHT22;25777;47.824;18.982;2023-09-19T02:40:32;19.70;99.90
40077;DHT22;25777;47.824;18.982;2023-09-19T02:43:01;19.60;99.90
40077;DHT22;25777;47.824;18.982;2023-09-19T02:45:27;19.60;99.90
40077;DHT22;25777;47.824;18.982;2023-09-19T02:47:54;19.60;99.90
40077;DHT22;25777;47.824;18.982;2023-09-19T02:50:20;19.50;99.90
40077;DHT22;25777;47.824;18.982;2023-09-19T02:52:47;19.50;99.90
40077;DHT22;25777;47.824;18.982;2023-09-19T02:55:15;19.50;99.90
40077;DHT22;25777;47.824;18.982;2023-09-19T02:57:55;19.60;99.90
40077;DHT22;25777;47.824;18.982;2023-09-19T03:00:22;19.50;99.90
40077;DHT22;25777;47.824;18.982;2023-09-19T03:02:49;19.50;99.90
40077;DHT22;25777;47.824;18.982;2023-09-19T03:05:16;19.50;99.90
40077;DHT22;25777;47.824;18.982;2023-09-19T03:07:43;19.50;99.90
40077;DHT22;25777;47.824;18.982;2023-09-19T03:10:09;19.50;99.90
40077;DHT22;25777;47.824;18.982;2023-09-19T03:12:35;19.50;99.90
40077;DHT22;25777;47.824;18.982;2023-09-19T03:15:03;19.50;99.90
40077;DHT22;25777;47.824;18.982;2023-09-19T03:17:36;19.50;99.90
40077;DHT22;25777;47.824;18.982;2023-09-19T03:20:03;19.50;99.90
40077;DHT22;25777;47.824;18.982;2023-09-19T03:22:31;19.50;99.90
40077;DHT22;25777;47.824;18.982;2023-09-19T03:24:57;19.50;99.90
40077;DHT22;25777;47.824;18.982;2023-09-19T03:27:23;19.40;99.90
40077;DHT22;25777;47.824;18.982;2023-09-19T03:29:49;19.40;99.90
40077;DHT22;25777;47.824;18.982;2023-09-19T03:32:16;19.40;99.90
40077;DHT22;25777;47.824;18.982;2023-09-19T03:34:42;19.40;99.90
40077;DHT22;25777;47.824;18.982;2023-09-19T03:37:11;19.30;99.90
40077;DHT22;25777;47.824;18.982;2023-09-19T03:39:37;19.30;99.90
40077;DHT22;25777;47.824;18.982;2023-09-19T03:42:04;19.20;99.90
40077;DHT22;25777;47.824;18.982;2023-09-19T03:44:31;19.20;99.90
40077;DHT22;25777;47.824;18.982;2023-09-19T03:46:59;19.20;99.90
40077;DHT22;25777;47.824;18.982;2023-09-19T03:49:25;19.20;99.90
40077;DHT22;25777;47.824;18.982;2023-09-19T03:52:02;19.10;99.90
40077;DHT22;25777;47.824;18.982;2023-09-19T03:54:28;19.20;99.90
40077;DHT22;25777;47.824;18.982;2023-09-19T03:56:56;19.20;99.90
40077;DHT22;25777;47.824;18.982;2023-09-19T03:59:24;19.20;99.90
40077;DHT22;25777;47.824;18.982;2023-09-19T04:01:49;19.10;99.90
40077;DHT22;25777;47.824;18.982;2023-09-19T04:04:23;19.10;99.90
40077;DHT22;25777;47.824;18.982;2023-09-19T04:06:53;19.10;99.90
40077;DHT22;25777;47.824;18.982;2023-09-19T04:09:20;19.20;99.90
40077;DHT22;25777;47.824;18.982;2023-09-19T04:11:49;19.20;99.90
40077;DHT22;25777;47.824;18.982;2023-09-19T04:14:16;19.20;99.90
40077;DHT22;25777;47.824;18.982;2023-09-19T04:16:44;19.10;99.90
40077;DHT22;25777;47.824;18.982;2023-09-19T04:19:13;19.10;99.90
40077;DHT22;25777;47.824;18.982;2023-09-19T04:21:50;19.00;99.90
40077;DHT22;25777;47.824;18.982;2023-09-19T04:24:21;18.90;99.90
40077;DHT22;25777;47.824;18.982;2023-09-19T04:26:49;18.90;99.90
40077;DHT22;25777;47.824;18.982;2023-09-19T04:29:21;18.90;99.90
40077;DHT22;25777;47.824;18.982;2023-09-19T04:31:48;18.90;99.90
40077;DHT22;25777;47.824;18.982;2023-09-19T04:34:14;18.90;99.90
40077;DHT22;25777;47.824;18.982;2023-09-19T04:36:42;18.90;99.90
40077;DHT22;25777;47.824;18.982;2023-09-19T04:39:09;18.80;99.90
40077;DHT22;25777;47.824;18.982;2023-09-19T04:41:36;18.80;99.90
40077;DHT22;25777;47.824;18.982;2023-09-19T04:44:07;18.80;99.90
40077;DHT22;25777;47.824;18.982;2023-09-19T04:46:34;18.80;99.90
40077;DHT22;25777;47.824;18.982;2023-09-19T04:49:00;18.70;99.90
40077;DHT22;25777;47.824;18.982;2023-09-19T04:51:26;18.80;99.90
40077;DHT22;25777;47.824;18.982;2023-09-19T04:53:55;18.80;99.90
40077;DHT22;25777;47.824;18.982;2023-09-19T04:56:21;18.70;99.90
40077;DHT22;25777;47.824;18.982;2023-09-19T04:58:48;18.80;99.90
40077;DHT22;25777;47.824;18.982;2023-09-19T05:01:14;18.70;99.90
40077;DHT22;25777;47.824;18.982;2023-09-19T05:03:40;18.60;99.90
40077;DHT22;25777;47.824;18.982;2023-09-19T05:06:06;18.60;99.90
40077;DHT22;25777;47.824;18.982;2023-09-19T05:08:32;18.70;99.90
40077;DHT22;25777;47.824;18.982;2023-09-19T05:10:58;18.60;99.90
40077;DHT22;25777;47.824;18.982;2023-09-19T05:13:27;18.60;99.90
40077;DHT22;25777;47.824;18.982;2023-09-19T05:15:52;18.50;99.90
40077;DHT22;25777;47.824;18.982;2023-09-19T05:18:18;18.50;99.90
40077;DHT22;25777;47.824;18.982;2023-09-19T05:20:44;18.60;99.90
40077;DHT22;25777;47.824;18.982;2023-09-19T05:23:10;18.50;99.90
40077;DHT22;25777;47.824;18.982;2023-09-19T05:25:39;18.60;99.90
40077;DHT22;25777;47.824;18.982;2023-09-19T05:28:06;18.40;99.90
40077;DHT22;25777;47.824;18.982;2023-09-19T05:30:33;18.40;99.90
40077;DHT22;25777;47.824;18.982;2023-09-19T05:33:02;18.50;99.90
40077;DHT22;25777;47.824;18.982;2023-09-19T05:35:29;18.30;99.90
40077;DHT22;25777;47.824;18.982;2023-09-19T05:37:55;18.30;99.90
40077;DHT22;25777;47.824;18.982;2023-09-19T05:40:22;18.30;99.90
40077;DHT22;25777;47.824;18.982;2023-09-19T05:42:50;18.30;99.90
40077;DHT22;25777;47.824;18.982;2023-09-19T05:45:18;18.30;99.90
40077;DHT22;25777;47.824;18.982;2023-09-19T05:47:51;18.30;99.90
40077;DHT22;25777;47.824;18.982;2023-09-19T05:50:21;18.30;99.90
40077;DHT22;25777;47.824;18.982;2023-09-19T05:52:54;18.10;99.90
40077;DHT22;25777;47.824;18.982;2023-09-19T05:55:22;18.10;99.90
40077;DHT22;25777;47.824;18.982;2023-09-19T05:57:52;18.10;99.90
40077;DHT22;25777;47.824;18.982;2023-09-19T06:00:21;18.10;99.90
40077;DHT22;25777;47.824;18.982;2023-09-19T06:02:52;18.10;99.90
40077;DHT22;25777;47.824;18.982;2023-09-19T06:05:18;18.00;99.90
40077;DHT22;25777;47.824;18.982;2023-09-19T06:07:44;17.90;99.90
40077;DHT22;25777;47.824;18.982;2023-09-19T06:10:10;18.10;99.90
40077;DHT22;25777;47.824;18.982;2023-09-19T06:12:54;18.10;99.90
40077;DHT22;25777;47.824;18.982;2023-09-19T06:15:21;18.00;99.90
40077;DHT22;25777;47.824;18.982;2023-09-19T06:17:54;18.00;99.90
40077;DHT22;25777;47.824;18.982;2023-09-19T06:20:20;17.80;99.90
40077;DHT22;25777;47.824;18.982;2023-09-19T06:22:48;17.80;99.90
40077;DHT22;25777;47.824;18.982;2023-09-19T06:25:15;17.90;99.90
40077;DHT22;25777;47.824;18.982;2023-09-19T06:27:52;17.90;99.90
40077;DHT22;25777;47.824;18.982;2023-09-19T06:30:20;17.90;99.90
40077;DHT22;25777;47.824;18.982;2023-09-19T06:32:46;17.90;99.90
40077;DHT22;25777;47.824;18.982;2023-09-19T06:35:15;17.80;99.90
40077;DHT22;25777;47.824;18.982;2023-09-19T06:37:43;17.80;99.90
40077;DHT22;25777;47.824;18.982;2023-09-19T06:40:12;17.90;99.90
40077;DHT22;25777;47.824;18.982;2023-09-19T06:42:44;17.90;99.90
40077;DHT22;25777;47.824;18.982;2023-09-19T06:45:11;17.80;99.90
40077;DHT22;25777;47.824;18.982;2023-09-19T06:47:39;17.80;99.90
40077;DHT22;25777;47.824;18.982;2023-09-19T06:50:06;17.70;99.90
40077;DHT22;25777;47.824;18.982;2023-09-19T06:52:35;17.80;99.90
40077;DHT22;25777;47.824;18.982;2023-09-19T06:55:00;17.70;99.90
40077;DHT22;25777;47.824;18.982;2023-09-19T06:57:28;17.70;99.90
40077;DHT22;25777;47.824;18.982;2023-09-19T06:59:56;17.70;99.90
40077;DHT22;25777;47.824;18.982;2023-09-19T07:02:22;17.80;99.90
40077;DHT22;25777;47.824;18.982;2023-09-19T07:04:48;17.80;99.90
40077;DHT22;25777;47.824;18.982;2023-09-19T07:07:15;17.80;99.90
40077;DHT22;25777;47.824;18.982;2023-09-19T07:09:42;17.70;99.90
40077;DHT22;25777;47.824;18.982;2023-09-19T07:12:08;17.80;99.90
40077;DHT22;25777;47.824;18.982;2023-09-19T07:14:33;17.90;99.90
40077;DHT22;25777;47.824;18.982;2023-09-19T07:16:59;17.90;99.90
40077;DHT22;25777;47.824;18.982;2023-09-19T07:19:26;17.80;99.90
40077;DHT22;25777;47.824;18.982;2023-09-19T07:21:55;17.80;99.90
40077;DHT22;25777;47.824;18.982;2023-09-19T07:24:21;17.80;99.90
40077;DHT22;25777;47.824;18.982;2023-09-19T07:26:50;17.80;99.90
40077;DHT22;25777;47.824;18.982;2023-09-19T07:29:16;17.80;99.90
40077;DHT22;25777;47.824;18.982;2023-09-19T07:31:42;17.80;99.90
40077;DHT22;25777;47.824;18.982;2023-09-19T07:34:09;17.70;99.90
40077;DHT22;25777;47.824;18.982;2023-09-19T07:36:36;17.90;99.90
40077;DHT22;25777;47.824;18.982;2023-09-19T07:39:03;17.90;99.90
40077;DHT22;25777;47.824;18.982;2023-09-19T07:41:33;17.90;99.90
40077;DHT22;25777;47.824;18.982;2023-09-19T07:43:59;17.80;99.90
40077;DHT22;25777;47.824;18.982;2023-09-19T07:46:24;17.80;99.90
40077;DHT22;25777;47.824;18.982;2023-09-19T07:48:51;17.80;99.90
40077;DHT22;25777;47.824;18.982;2023-09-19T07:51:18;17.90;99.90
40077;DHT22;25777;47.824;18.982;2023-09-19T07:53:44;17.90;99.90
40077;DHT22;25777;47.824;18.982;2023-09-19T07:56:10;17.70;99.90
40077;DHT22;25777;47.824;18.982;2023-09-19T07:58:39;17.70;99.90
40077;DHT22;25777;47.824;18.982;2023-09-19T08:01:07;17.70;99.90
40077;DHT22;25777;47.824;18.982;2023-09-19T08:03:37;17.70;99.90
40077;DHT22;25777;47.824;18.982;2023-09-19T08:06:10;17.80;99.90
40077;DHT22;25777;47.824;18.982;2023-09-19T08:08:36;17.70;99.90
40077;DHT22;25777;47.824;18.982;2023-09-19T08:11:06;17.70;99.90
40077;DHT22;25777;47.824;18.982;2023-09-19T08:13:39;17.90;99.90
40077;DHT22;25777;47.824;18.982;2023-09-19T08:16:12;17.80;99.90
40077;DHT22;25777;47.824;18.982;2023-09-19T08:18:38;17.90;99.90
40077;DHT22;25777;47.824;18.982;2023-09-19T08:21:05;17.90;99.90
40077;DHT22;25777;47.824;18.982;2023-09-19T08:23:33;17.90;99.90
40077;DHT22;25777;47.824;18.982;2023-09-19T08:25:59;17.90;99.90
40077;DHT22;25777;47.824;18.982;2023-09-19T08:28:28;17.90;99.90
40077;DHT22;25777;47.824;18.982;2023-09-19T08:30:55;18.00;99.90
40077;DHT22;25777;47.824;18.982;2023-09-19T08:33:22;18.00;99.90
40077;DHT22;25777;47.824;18.982;2023-09-19T08:35:48;18.10;99.90
40077;DHT22;25777;47.824;18.982;2023-09-19T08:38:14;18.10;99.90
40077;DHT22;25777;47.824;18.982;2023-09-19T08:40:40;18.10;99.90
40077;DHT22;25777;47.824;18.982;2023-09-19T08:43:08;18.20;99.90
40077;DHT22;25777;47.824;18.982;2023-09-19T08:45:34;18.10;99.90
40077;DHT22;25777;47.824;18.982;2023-09-19T08:48:22;18.10;99.90
40077;DHT22;25777;47.824;18.982;2023-09-19T08:50:51;18.20;99.90
40077;DHT22;25777;47.824;18.982;2023-09-19T08:53:34;18.30;99.90
40077;DHT22;25777;47.824;18.982;2023-09-19T08:56:03;18.30;99.90
40077;DHT22;25777;47.824;18.982;2023-09-19T08:58:44;18.30;99.90
40077;DHT22;25777;47.824;18.982;2023-09-19T09:01:10;18.20;99.90
40077;DHT22;25777;47.824;18.982;2023-09-19T09:03:40;18.30;99.90
40077;DHT22;25777;47.824;18.982;2023-09-19T09:06:09;18.30;99.90
40077;DHT22;25777;47.824;18.982;2023-09-19T09:08:37;18.30;99.90
40077;DHT22;25777;47.824;18.982;2023-09-19T09:11:05;18.30;99.90
40077;DHT22;25777;47.824;18.982;2023-09-19T09:13:35;18.30;99.90
40077;DHT22;25777;47.824;18.982;2023-09-19T09:16:01;18.20;99.90
40077;DHT22;25777;47.824;18.982;2023-09-19T09:18:30;18.30;99.90
40077;DHT22;25777;47.824;18.982;2023-09-19T09:20:57;18.20;99.90
40077;DHT22;25777;47.824;18.982;2023-09-19T09:23:23;18.30;99.90
40077;DHT22;25777;47.824;18.982;2023-09-19T09:28:25;18.30;99.90
40077;DHT22;25777;47.824;18.982;2023-09-19T09:30:54;18.10;99.90
40077;DHT22;25777;47.824;18.982;2023-09-19T09:33:20;18.20;99.90
40077;DHT22;25777;47.824;18.982;2023-09-19T09:36:00;18.20;99.90
40077;DHT22;25777;47.824;18.982;2023-09-19T09:38:44;18.20;99.90
40077;DHT22;25777;47.824;18.982;2023-09-19T09:41:11;18.10;99.90
40077;DHT22;25777;47.824;18.982;2023-09-19T09:43:41;18.10;99.90
40077;DHT22;25777;47.824;18.982;2023-09-19T09:46:20;18.20;99.90
40077;DHT22;25777;47.824;18.982;2023-09-19T09:51:42;18.20;99.90
40077;DHT22;25777;47.824;18.982;2023-09-19T09:54:12;18.10;99.90
40077;DHT22;25777;47.824;18.982;2023-09-19T09:56:57;18.10;99.90
40077;DHT22;25777;47.824;18.982;2023-09-19T10:02:17;18.20;99.90
40077;DHT22;25777;47.824;18.982;2023-09-19T10:04:59;18.40;99.90
40077;DHT22;25777;47.824;18.982;2023-09-19T10:07:36;18.50;99.90
40077;DHT22;25777;47.824;18.982;2023-09-19T10:10:06;18.80;99.90
40077;DHT22;25777;47.824;18.982;2023-09-19T10:12:45;19.00;99.90
40077;DHT22;25777;47.824;18.982;2023-09-19T10:15:15;19.40;99.90
40077;DHT22;25777;47.824;18.982;2023-09-19T10:17:44;19.70;99.90
40077;DHT22;25777;47.824;18.982;2023-09-19T10:20:16;19.40;99.90
40077;DHT22;25777;47.824;18.982;2023-09-19T10:23:07;19.30;99.90
40077;DHT22;25777;47.824;18.982;2023-09-19T10:25:40;19.70;99.90
40077;DHT22;25777;47.824;18.982;2023-09-19T10:28:11;19.90;99.90
40077;DHT22;25777;47.824;18.982;2023-09-19T10:30:39;20.10;99.90
40077;DHT22;25777;47.824;18.982;2023-09-19T10:33:14;20.20;99.90
40077;DHT22;25777;47.824;18.982;2023-09-19T10:35:43;20.30;99.90
40077;DHT22;25777;47.824;18.982;2023-09-19T10:38:11;20.20;99.90
40077;DHT22;25777;47.824;18.982;2023-09-19T10:40:38;20.00;99.90
40077;DHT22;25777;47.824;18.982;2023-09-19T10:43:16;19.90;99.90
40077;DHT22;25777;47.824;18.982;2023-09-19T10:45:48;19.80;99.90
40077;DHT22;25777;47.824;18.982;2023-09-19T10:48:19;19.60;99.90
40077;DHT22;25777;47.824;18.982;2023-09-19T10:50:50;19.40;99.90
40077;DHT22;25777;47.824;18.982;2023-09-19T10:53:17;19.50;99.90
40077;DHT22;25777;47.824;18.982;2023-09-19T10:56:10;19.50;99.90
40077;DHT22;25777;47.824;18.982;2023-09-19T10:58:43;19.30;99.90
40077;DHT22;25777;47.824;18.982;2023-09-19T11:01:11;19.30;99.90
40077;DHT22;25777;47.824;18.982;2023-09-19T11:03:44;19.40;99.90
40077;DHT22;25777;47.824;18.982;2023-09-19T11:06:16;19.50;99.90
40077;DHT22;25777;47.824;18.982;2023-09-19T11:09:03;19.40;99.90
40077;DHT22;25777;47.824;18.982;2023-09-19T11:11:55;19.30;99.90
40077;DHT22;25777;47.824;18.982;2023-09-19T11:30:49;19.50;99.90
40077;DHT22;25777;47.824;18.982;2023-09-19T11:36:12;19.60;99.90
40077;DHT22;25777;47.824;18.982;2023-09-19T11:41:38;20.40;99.90
40077;DHT22;25777;47.824;18.982;2023-09-19T11:44:31;20.90;99.90
40077;DHT22;25777;47.824;18.982;2023-09-19T11:46:57;20.90;99.90
40077;DHT22;25777;47.824;18.982;2023-09-19T11:49:33;20.70;99.90
40077;DHT22;25777;47.824;18.982;2023-09-19T11:52:01;20.70;99.90
40077;DHT22;25777;47.824;18.982;2023-09-19T11:54:30;20.60;99.90
40077;DHT22;25777;47.824;18.982;2023-09-19T11:57:00;20.60;99.90
40077;DHT22;25777;47.824;18.982;2023-09-19T11:59:28;20.70;99.90
40077;DHT22;25777;47.824;18.982;2023-09-19T12:02:01;20.50;99.90
40077;DHT22;25777;47.824;18.982;2023-09-19T12:07:09;20.50;99.90
40077;DHT22;25777;47.824;18.982;2023-09-19T12:09:45;20.40;99.90
40077;DHT22;25777;47.824;18.982;2023-09-19T12:12:28;20.40;99.90
40077;DHT22;25777;47.824;18.982;2023-09-19T12:14:56;20.40;99.90
40077;DHT22;25777;47.824;18.982;2023-09-19T12:17:37;20.40;99.90
40077;DHT22;25777;47.824;18.982;2023-09-19T12:20:05;20.50;99.90
40077;DHT22;25777;47.824;18.982;2023-09-19T12:22:41;20.80;99.90
40077;DHT22;25777;47.824;18.982;2023-09-19T12:25:09;21.00;99.90
40077;DHT22;25777;47.824;18.982;2023-09-19T12:27:43;21.00;99.90
40077;DHT22;25777;47.824;18.982;2023-09-19T12:30:16;21.00;99.90
40077;DHT22;25777;47.824;18.982;2023-09-19T12:32:46;21.20;99.90
40077;DHT22;25777;47.824;18.982;2023-09-19T12:35:28;21.20;99.90
40077;DHT22;25777;47.824;18.982;2023-09-19T12:37:56;21.10;99.90
40077;DHT22;25777;47.824;18.982;2023-09-19T12:40:23;20.90;99.90
40077;DHT22;25777;47.824;18.982;2023-09-19T12:42:56;20.70;99.90
40077;DHT22;25777;47.824;18.982;2023-09-19T12:45:24;20.60;99.90
40077;DHT22;25777;47.824;18.982;2023-09-19T12:51:08;20.90;99.90
40077;DHT22;25777;47.824;18.982;2023-09-19T12:53:57;20.90;99.90
40077;DHT22;25777;47.824;18.982;2023-09-19T12:56:23;20.90;99.90
40077;DHT22;25777;47.824;18.982;2023-09-19T12:58:54;21.20;99.90
40077;DHT22;25777;47.824;18.982;2023-09-19T13:01:21;21.40;99.90
40077;DHT22;25777;47.824;18.982;2023-09-19T13:04:20;21.50;99.90
40077;DHT22;25777;47.824;18.982;2023-09-19T13:06:55;21.80;99.90
40077;DHT22;25777;47.824;18.982;2023-09-19T13:09:27;22.20;99.90
40077;DHT22;25777;47.824;18.982;2023-09-19T13:12:04;22.30;99.90
40077;DHT22;25777;47.824;18.982;2023-09-19T13:14:32;22.60;99.90
40077;DHT22;25777;47.824;18.982;2023-09-19T13:17:09;22.70;99.90
40077;DHT22;25777;47.824;18.982;2023-09-19T13:19:50;22.80;99.90
40077;DHT22;25777;47.824;18.982;2023-09-19T13:22:42;22.90;99.90
40077;DHT22;25777;47.824;18.982;2023-09-19T13:25:15;22.60;99.90
40077;DHT22;25777;47.824;18.982;2023-09-19T13:30:13;22.20;99.90
40077;DHT22;25777;47.824;18.982;2023-09-19T13:32:40;22.10;99.90
40077;DHT22;25777;47.824;18.982;2023-09-19T13:35:08;22.40;99.90
40077;DHT22;25777;47.824;18.982;2023-09-19T13:37:39;22.30;99.90
40077;DHT22;25777;47.824;18.982;2023-09-19T13:40:12;22.30;99.90
40077;DHT22;25777;47.824;18.982;2023-09-19T13:42:39;22.30;99.90
40077;DHT22;25777;47.824;18.982;2023-09-19T13:45:06;22.30;99.90
40077;DHT22;25777;47.824;18.982;2023-09-19T13:47:33;22.10;99.90
40077;DHT22;25777;47.824;18.982;2023-09-19T13:50:01;22.00;99.90
40077;DHT22;25777;47.824;18.982;2023-09-19T13:52:29;21.70;99.90
40077;DHT22;25777;47.824;18.982;2023-09-19T13:54:56;21.80;99.90
40077;DHT22;25777;47.824;18.982;2023-09-19T13:57:28;21.60;99.90
40077;DHT22;25777;47.824;18.982;2023-09-19T13:59:55;21.60;99.90
40077;DHT22;25777;47.824;18.982;2023-09-19T14:02:21;21.50;99.90
40077;DHT22;25777;47.824;18.982;2023-09-19T14:04:53;21.70;99.90
40077;DHT22;25777;47.824;18.982;2023-09-19T14:07:19;22.30;99.90
40077;DHT22;25777;47.824;18.982;2023-09-19T14:09:46;23.00;99.90
40077;DHT22;25777;47.824;18.982;2023-09-19T14:12:14;23.30;99.90
40077;DHT22;25777;47.824;18.982;2023-09-19T14:14:39;23.60;99.90
40077;DHT22;25777;47.824;18.982;2023-09-19T14:17:07;23.20;99.90
40077;DHT22;25777;47.824;18.982;2023-09-19T14:19:33;23.30;99.90
40077;DHT22;25777;47.824;18.982;2023-09-19T14:22:00;22.90;99.90
40077;DHT22;25777;47.824;18.982;2023-09-19T14:24:33;22.70;99.90
40077;DHT22;25777;47.824;18.982;2023-09-19T14:26:58;22.70;99.90
40077;DHT22;25777;47.824;18.982;2023-09-19T14:29:25;22.60;99.90
40077;DHT22;25777;47.824;18.982;2023-09-19T14:31:50;22.40;99.90
40077;DHT22;25777;47.824;18.982;2023-09-19T14:34:17;22.30;99.90
40077;DHT22;25777;47.824;18.982;2023-09-19T14:36:45;22.10;99.90
40077;DHT22;25777;47.824;18.982;2023-09-19T14:39:12;22.00;99.90
40077;DHT22;25777;47.824;18.982;2023-09-19T14:41:37;22.00;99.90
40077;DHT22;25777;47.824;18.982;2023-09-19T14:44:04;21.80;99.90
40077;DHT22;25777;47.824;18.982;2023-09-19T14:46:30;21.70;99.90
40077;DHT22;25777;47.824;18.982;2023-09-19T14:48:56;21.70;99.90
40077;DHT22;25777;47.824;18.982;2023-09-19T14:51:29;21.60;99.90
40077;DHT22;25777;47.824;18.982;2023-09-19T14:53:55;21.50;99.90
40077;DHT22;25777;47.824;18.982;2023-09-19T14:56:22;21.30;99.90
40077;DHT22;25777;47.824;18.982;2023-09-19T14:58:49;21.30;99.90
40077;DHT22;25777;47.824;18.982;2023-09-19T15:01:15;21.40;99.90
40077;DHT22;25777;47.824;18.982;2023-09-19T15:03:42;21.40;99.90
40077;DHT22;25777;47.824;18.982;2023-09-19T15:06:12;21.60;99.90
40077;DHT22;25777;47.824;18.982;2023-09-19T15:08:44;21.70;99.90
40077;DHT22;25777;47.824;18.982;2023-09-19T15:11:14;21.70;99.90
40077;DHT22;25777;47.824;18.982;2023-09-19T15:13:43;21.50;99.90
40077;DHT22;25777;47.824;18.982;2023-09-19T15:16:09;21.20;99.90
40077;DHT22;25777;47.824;18.982;2023-09-19T15:18:43;21.00;99.90
40077;DHT22;25777;47.824;18.982;2023-09-19T15:21:11;20.90;99.90
40077;DHT22;25777;47.824;18.982;2023-09-19T15:23:39;21.00;99.90
40077;DHT22;25777;47.824;18.982;2023-09-19T15:26:13;21.10;99.90
40077;DHT22;25777;47.824;18.982;2023-09-19T15:28:39;21.20;99.90
40077;DHT22;25777;47.824;18.982;2023-09-19T15:31:08;21.20;99.90
40077;DHT22;25777;47.824;18.982;2023-09-19T15:33:35;21.20;99.90
40077;DHT22;25777;47.824;18.982;2023-09-19T15:36:09;21.20;99.90
40077;DHT22;25777;47.824;18.982;2023-09-19T15:38:59;21.30;99.90
40077;DHT22;25777;47.824;18.982;2023-09-19T15:41:28;21.30;99.90
40077;DHT22;25777;47.824;18.982;2023-09-19T15:43:56;21.30;99.90
40077;DHT22;25777;47.824;18.982;2023-09-19T15:46:23;21.10;99.90
40077;DHT22;25777;47.824;18.982;2023-09-19T15:48:49;20.90;99.90
40077;DHT22;25777;47.824;18.982;2023-09-19T15:51:15;20.80;99.90
40077;DHT22;25777;47.824;18.982;2023-09-19T15:53:45;20.70;99.90
40077;DHT22;25777;47.824;18.982;2023-09-19T15:56:13;20.50;99.90
40077;DHT22;25777;47.824;18.982;2023-09-19T15:58:40;20.50;99.90
40077;DHT22;25777;47.824;18.982;2023-09-19T16:01:08;20.30;99.90
40077;DHT22;25777;47.824;18.982;2023-09-19T16:03:43;20.30;99.90
40077;DHT22;25777;47.824;18.982;2023-09-19T16:06:14;20.30;99.90
40077;DHT22;25777;47.824;18.982;2023-09-19T16:08:41;20.30;99.90
40077;DHT22;25777;47.824;18.982;2023-09-19T16:11:07;20.20;99.90
40077;DHT22;25777;47.824;18.982;2023-09-19T16:13:37;20.20;99.90
40077;DHT22;25777;47.824;18.982;2023-09-19T16:16:04;20.00;99.90
40077;DHT22;25777;47.824;18.982;2023-09-19T16:18:36;20.00;99.90
40077;DHT22;25777;47.824;18.982;2023-09-19T16:21:06;20.10;99.90
40077;DHT22;25777;47.824;18.982;2023-09-19T16:23:37;20.00;99.90